Terminal Aerodrome Forecast
Issued by NWS

Home | Current Version | Previous Version | Text Only | Print | Product List | Glossary On
Versions: 1 2 3 4 5 6 7 8 9 10 11 12 13 14 15
000
FTUS42 KMHX 201100
TAFPGV
TAF
KPGV 201121Z 2012/2112 05004KT P6SM BKN120
     FM201700 05004KT P6SM VCSH SCT025 OVC050
     FM210000 02002KT P6SM BKN080
      AMD LTD TO CLD VIS AND WIND=

USA.gov is the U.S. government's official web portal to all federal, state and local government web resources and services.